Time;durP1;ratioP1;P1;durP2;ratioP2;P2;SDS_P1;SDS_P2;PMS_P1;PMS_P2;Temp;Humidity;BMP_temperature;BMP_pressure;BME280_temperature;BME280_humidity;BME280_pressure;Samples;Min_cycle;Max_cycle;Signal;HPM_P1;HPM_P2
2021/04/10 00:00:42;;;;;;;30.33;18.27;;;7.10;77.30;;;;;;4999554;28;20209;-69
2021/04/10 00:03:13;;;;;;;31.77;19.38;;;7.10;77.30;;;;;;4999958;28;20420;-68
2021/04/10 00:05:39;;;;;;;35.47;19.92;;;7.00;77.80;;;;;;5009796;28;20209;-68
2021/04/10 00:08:06;;;;;;;25.83;19.00;;;7.00;77.40;;;;;;4990689;28;20237;-68
2021/04/10 00:10:33;;;;;;;32.33;19.35;;;6.90;77.70;;;;;;4999809;28;20507;-68
2021/04/10 00:12:59;;;;;;;27.85;19.20;;;6.90;78.20;;;;;;5008010;28;20212;-68
2021/04/10 00:15:28;;;;;;;34.55;19.17;;;6.80;78.20;;;;;;4999168;28;20397;-67
2021/04/10 00:17:56;;;;;;;29.38;19.17;;;6.80;78.30;;;;;;4990326;28;20220;-67
2021/04/10 00:20:26;;;;;;;35.20;21.40;;;6.70;77.80;;;;;;4989555;28;20656;-67
2021/04/10 00:22:52;;;;;;;34.90;20.40;;;6.90;79.20;;;;;;4999559;28;20221;-68
2021/04/10 00:25:20;;;;;;;32.40;19.45;;;6.80;78.70;;;;;;5009336;28;20201;-68
2021/04/10 00:27:48;;;;;;;26.92;18.17;;;6.80;78.70;;;;;;4999279;28;20636;-68
2021/04/10 00:30:16;;;;;;;30.48;19.73;;;6.60;79.10;;;;;;5001702;28;20237;-69
2021/04/10 00:32:49;;;;;;;30.83;19.13;;;6.40;80.10;;;;;;4999381;28;20209;-67
2021/04/10 00:35:16;;;;;;;33.47;17.88;;;6.50;80.80;;;;;;4999543;28;20216;-67
2021/04/10 00:37:43;;;;;;;27.67;17.75;;;6.50;79.70;;;;;;4999160;28;20217;-67
2021/04/10 00:40:10;;;;;;;24.63;17.60;;;6.50;79.50;;;;;;4999644;28;20232;-69
2021/04/10 00:42:37;;;;;;;27.88;18.70;;;6.50;79.60;;;;;;4999793;28;20212;-67
2021/04/10 00:45:06;;;;;;;26.25;16.17;;;6.40;79.80;;;;;;4998783;28;20213;-68
2021/04/10 00:47:33;;;;;;;36.20;19.38;;;6.40;80.10;;;;;;4999148;28;20226;-67
2021/04/10 00:50:00;;;;;;;27.42;18.25;;;6.40;80.40;;;;;;4999304;28;20240;-67
2021/04/10 00:52:28;;;;;;;36.17;18.60;;;6.30;80.60;;;;;;4997264;28;20209;-68
2021/04/10 00:54:55;;;;;;;30.95;21.02;;;6.30;81.00;;;;;;4998797;28;20225;-67
2021/04/10 00:57:22;;;;;;;29.65;19.33;;;6.20;79.90;;;;;;4998526;28;20236;-67
2021/04/10 00:59:49;;;;;;;31.35;19.67;;;6.20;80.50;;;;;;4998563;28;20245;-66
2021/04/10 01:02:16;;;;;;;33.53;21.75;;;6.30;79.60;;;;;;4998243;28;20216;-68
2021/04/10 01:04:43;;;;;;;40.00;22.67;;;6.20;79.80;;;;;;5007641;28;20220;-67
2021/04/10 01:07:10;;;;;;;31.55;21.20;;;6.20;80.20;;;;;;4998935;28;20552;-68
2021/04/10 01:09:37;;;;;;;37.38;18.30;;;6.00;80.80;;;;;;5006043;28;20401;-69
2021/04/10 01:12:04;;;;;;;32.75;18.08;;;6.10;82.10;;;;;;5000081;28;20381;-68
2021/04/10 01:14:49;;;;;;;31.92;19.02;;;6.20;80.80;;;;;;5008036;28;20213;-68
2021/04/10 01:17:22;;;;;;;40.50;21.20;;;6.20;80.50;;;;;;4988080;28;20209;-69
2021/04/10 01:20:25;;;;;;;35.30;19.75;;;6.10;80.80;;;;;;4984584;28;20500;-67
2021/04/10 01:23:07;;;;;;;44.28;21.98;;;6.10;80.40;;;;;;4993845;28;20518;-68
2021/04/10 01:25:48;;;;;;;29.58;19.27;;;6.20;80.40;;;;;;4990313;28;20213;-68
2021/04/10 01:28:29;;;;;;;31.90;18.02;;;6.20;80.10;;;;;;4998338;28;20236;-67
2021/04/10 01:30:58;;;;;;;31.05;19.00;;;6.10;80.60;;;;;;4996742;28;20623;-68
2021/04/10 01:33:29;;;;;;;39.85;23.98;;;6.10;80.40;;;;;;4989433;28;20209;-68
2021/04/10 01:35:59;;;;;;;48.80;25.40;;;6.10;80.30;;;;;;4990725;28;20204;-69
2021/04/10 01:38:29;;;;;;;43.53;24.83;;;6.00;81.60;;;;;;4961452;28;20214;-68
2021/04/10 01:41:00;;;;;;;45.80;25.52;;;5.90;82.00;;;;;;4965537;28;20218;-67
2021/04/10 01:43:29;;;;;;;42.40;25.67;;;5.90;82.30;;;;;;4992258;28;20216;-68
2021/04/10 01:45:56;;;;;;;43.95;25.05;;;5.80;82.80;;;;;;4985713;28;20213;-68
2021/04/10 01:48:25;;;;;;;29.27;19.73;;;5.80;82.20;;;;;;4983437;28;20247;-69
2021/04/10 01:50:53;;;;;;;33.28;20.35;;;5.70;82.30;;;;;;4998354;28;20248;-68
2021/04/10 01:53:23;;;;;;;39.03;22.80;;;5.60;82.50;;;;;;4993589;28;20228;-69
2021/04/10 01:55:51;;;;;;;36.17;22.75;;;5.70;82.50;;;;;;4988984;28;20527;-68
2021/04/10 01:58:18;;;;;;;36.60;22.88;;;5.80;82.40;;;;;;4997454;28;20209;-69
2021/04/10 02:00:46;;;;;;;35.47;19.33;;;5.80;82.60;;;;;;4997705;28;20285;-68
2021/04/10 02:03:18;;;;;;;31.73;19.17;;;5.70;82.40;;;;;;5011228;28;20217;-69
2021/04/10 02:05:45;;;;;;;44.30;25.42;;;5.70;82.50;;;;;;4984152;28;20228;-69
2021/04/10 02:08:14;;;;;;;75.00;43.85;;;5.60;83.30;;;;;;4983162;28;20252;-68
2021/04/10 02:10:41;;;;;;;69.88;34.80;;;5.60;83.80;;;;;;4991376;28;20278;-68
2021/04/10 02:13:09;;;;;;;43.47;25.95;;;5.60;83.90;;;;;;4990724;28;20218;-68
2021/04/10 02:15:36;;;;;;;35.22;21.77;;;5.60;83.60;;;;;;5019118;28;20533;-69
2021/04/10 02:18:03;;;;;;;36.08;19.98;;;5.50;84.00;;;;;;5021533;28;20243;-68
2021/04/10 02:20:30;;;;;;;33.42;19.70;;;5.50;84.20;;;;;;5002398;28;20209;-68
2021/04/10 02:22:57;;;;;;;33.17;20.02;;;5.50;84.30;;;;;;4984212;28;20224;-68
2021/04/10 02:25:26;;;;;;;27.50;19.75;;;5.40;84.40;;;;;;4998651;28;20213;-69
2021/04/10 02:27:54;;;;;;;30.85;16.35;;;5.50;84.40;;;;;;4989964;28;20264;-69
2021/04/10 02:30:22;;;;;;;27.25;18.00;;;5.40;84.00;;;;;;5001473;28;20208;-68
2021/04/10 02:32:58;;;;;;;42.25;24.95;;;5.30;84.80;;;;;;5003984;28;20507;-68
2021/04/10 02:35:30;;;;;;;36.20;18.13;;;5.30;85.30;;;;;;5002660;28;20212;-68
2021/04/10 02:37:58;;;;;;;52.85;25.67;;;5.30;85.40;;;;;;5000428;28;20207;-68
2021/04/10 02:40:30;;;;;;;27.27;17.05;;;5.20;86.60;;;;;;5001099;28;20243;-68
2021/04/10 02:42:58;;;;;;;23.80;17.73;;;5.00;86.50;;;;;;5001313;28;20207;-67
2021/04/10 02:45:26;;;;;;;31.95;17.05;;;5.00;86.60;;;;;;4990665;28;20220;-67
2021/04/10 02:47:59;;;;;;;26.30;15.75;;;5.10;86.30;;;;;;4995283;28;20280;-67
2021/04/10 02:50:28;;;;;;;27.50;17.67;;;4.80;86.80;;;;;;4981994;28;20249;-68
2021/04/10 02:52:56;;;;;;;66.63;26.42;;;4.90;86.80;;;;;;5012288;28;20209;-68
2021/04/10 02:55:34;;;;;;;38.63;19.77;;;5.10;87.10;;;;;;4983960;28;20212;-68
2021/04/10 02:58:07;;;;;;;44.25;22.27;;;5.00;86.80;;;;;;4997784;28;20223;-68
2021/04/10 03:00:35;;;;;;;36.78;21.05;;;5.10;86.30;;;;;;4981505;28;20228;-68
2021/04/10 03:03:03;;;;;;;69.50;26.90;;;5.10;87.20;;;;;;4982405;28;20225;-68
2021/04/10 03:05:30;;;;;;;133.57;42.80;;;5.00;87.30;;;;;;5000351;28;20216;-67
2021/04/10 03:07:58;;;;;;;37.13;20.10;;;5.10;86.90;;;;;;4983588;28;20236;-68
2021/04/10 03:10:25;;;;;;;42.00;24.60;;;4.90;87.20;;;;;;5000799;28;20216;-68
2021/04/10 03:12:53;;;;;;;39.05;20.25;;;4.80;87.40;;;;;;5001376;28;20216;-68
2021/04/10 03:15:20;;;;;;;40.03;19.98;;;4.70;88.80;;;;;;4986975;28;20214;-68
2021/04/10 03:17:47;;;;;;;63.13;27.08;;;4.60;88.40;;;;;;5000661;28;20224;-68
2021/04/10 03:20:16;;;;;;;76.03;30.60;;;4.70;88.80;;;;;;5000414;28;20236;-68
2021/04/10 03:22:44;;;;;;;38.80;17.52;;;4.70;88.30;;;;;;5000671;28;20243;-68
2021/04/10 03:25:12;;;;;;;57.13;26.13;;;4.70;87.80;;;;;;4986398;28;20391;-67
2021/04/10 03:27:39;;;;;;;51.38;24.45;;;4.90;87.60;;;;;;5000330;28;20245;-68
2021/04/10 03:30:09;;;;;;;32.92;14.82;;;5.00;86.80;;;;;;4999914;28;20219;-68
2021/04/10 03:32:37;;;;;;;28.45;15.57;;;5.10;86.20;;;;;;4992760;28;20286;-67
2021/04/10 03:35:04;;;;;;;436.75;124.50;;;5.20;85.50;;;;;;4994815;28;20539;-67
2021/04/10 03:37:31;;;;;;;89.68;34.67;;;5.10;87.20;;;;;;4987015;28;20221;-68
2021/04/10 03:39:59;;;;;;;79.82;30.80;;;5.20;86.90;;;;;;4994251;28;20219;-68
2021/04/10 03:42:44;;;;;;;39.03;18.42;;;5.10;86.20;;;;;;5000062;28;20263;-67
2021/04/10 03:45:13;;;;;;;26.05;16.95;;;4.90;87.00;;;;;;5000277;28;20200;-68
2021/04/10 03:47:52;;;;;;;37.17;19.02;;;4.80;87.10;;;;;;4996391;28;20279;-67
2021/04/10 03:50:21;;;;;;;22.77;14.25;;;4.80;87.60;;;;;;4990124;28;20241;-68
2021/04/10 03:52:49;;;;;;;31.20;17.38;;;4.90;86.90;;;;;;4999654;28;20207;-68
2021/04/10 03:55:16;;;;;;;19.02;12.90;;;5.00;86.10;;;;;;5000086;28;20318;-68
2021/04/10 03:57:43;;;;;;;21.88;13.50;;;5.10;86.20;;;;;;5000261;28;20222;-68
2021/04/10 04:00:10;;;;;;;30.98;15.70;;;5.10;85.30;;;;;;5000004;28;20276;-68
2021/04/10 04:02:38;;;;;;;23.95;14.10;;;5.20;85.50;;;;;;5012243;28;20215;-68
2021/04/10 04:05:06;;;;;;;57.78;22.77;;;5.20;85.90;;;;;;5008467;28;20235;-68
2021/04/10 04:07:33;;;;;;;26.02;15.57;;;5.20;85.90;;;;;;5003626;28;20237;-68
2021/04/10 04:10:00;;;;;;;21.70;13.80;;;4.90;86.80;;;;;;4982447;28;20446;-68
2021/04/10 04:12:27;;;;;;;18.20;11.32;;;4.80;86.90;;;;;;5003512;28;20217;-68
2021/04/10 04:14:54;;;;;;;18.27;12.60;;;4.80;86.50;;;;;;5003485;28;20214;-68
2021/04/10 04:17:20;;;;;;;22.25;12.30;;;4.90;86.40;;;;;;4999180;28;20209;-68
2021/04/10 04:19:47;;;;;;;20.63;13.38;;;4.90;85.90;;;;;;4999212;28;20352;-68
2021/04/10 04:22:13;;;;;;;18.42;11.60;;;4.90;85.40;;;;;;4999189;28;20231;-68
2021/04/10 04:24:40;;;;;;;19.50;11.77;;;5.10;85.00;;;;;;4999365;28;20209;-68
2021/04/10 04:27:06;;;;;;;20.70;11.75;;;5.20;84.80;;;;;;4999716;28;20213;-68
2021/04/10 04:29:33;;;;;;;17.02;12.30;;;5.30;84.20;;;;;;4999494;28;20237;-68
2021/04/10 04:32:00;;;;;;;17.35;11.77;;;5.50;83.60;;;;;;4998906;28;20439;-69
2021/04/10 04:34:27;;;;;;;14.57;11.00;;;5.60;83.00;;;;;;4999549;28;20212;-68
2021/04/10 04:36:53;;;;;;;21.05;14.23;;;5.80;82.30;;;;;;4998321;28;20428;-69
2021/04/10 04:39:20;;;;;;;19.55;11.38;;;5.90;81.80;;;;;;4993164;28;20209;-68
2021/04/10 04:41:47;;;;;;;20.52;12.43;;;6.00;81.30;;;;;;4998939;28;20213;-69
2021/04/10 04:44:13;;;;;;;20.45;13.05;;;6.10;81.50;;;;;;4985282;28;20236;-68
2021/04/10 04:46:40;;;;;;;17.05;13.07;;;6.00;82.20;;;;;;4991543;28;20521;-69
2021/04/10 04:49:06;;;;;;;18.65;13.10;;;6.10;81.60;;;;;;4992810;28;20244;-69
2021/04/10 04:51:33;;;;;;;19.05;12.30;;;6.40;80.20;;;;;;4999360;28;20237;-68
2021/04/10 04:54:00;;;;;;;17.55;13.13;;;6.50;81.20;;;;;;4999853;28;20471;-67
2021/04/10 04:56:26;;;;;;;15.13;10.70;;;6.60;81.00;;;;;;5009821;28;20209;-68
2021/04/10 04:58:53;;;;;;;18.75;13.32;;;6.90;80.20;;;;;;5014302;28;20228;-68
2021/04/10 05:01:19;;;;;;;17.08;12.30;;;7.10;78.40;;;;;;5000355;28;20236;-69
2021/04/10 05:03:46;;;;;;;16.98;12.52;;;7.40;77.40;;;;;;5008086;28;20224;-68
2021/04/10 05:06:13;;;;;;;21.38;12.73;;;7.60;76.30;;;;;;5008534;28;20225;-68
2021/04/10 05:08:40;;;;;;;15.40;11.65;;;7.80;75.10;;;;;;5003892;28;20233;-68
2021/04/10 05:11:07;;;;;;;16.42;12.25;;;8.10;74.30;;;;;;5011292;28;20217;-68
2021/04/10 05:13:33;;;;;;;28.88;13.25;;;8.40;74.20;;;;;;4993798;28;20201;-68
2021/04/10 05:16:00;;;;;;;17.98;13.80;;;8.70;72.70;;;;;;4980425;28;20208;-69
2021/04/10 05:18:26;;;;;;;15.90;12.70;;;8.90;70.60;;;;;;4983588;28;20246;-68
2021/04/10 05:20:53;;;;;;;18.17;13.32;;;9.10;69.30;;;;;;4981161;28;20502;-68
2021/04/10 05:23:21;;;;;;;18.65;13.98;;;9.30;68.80;;;;;;4989305;28;20235;-68
2021/04/10 05:25:49;;;;;;;20.85;13.88;;;9.50;68.70;;;;;;4982462;28;20200;-69
2021/04/10 05:28:19;;;;;;;16.67;12.65;;;9.60;68.00;;;;;;4984445;28;20236;-68
2021/04/10 05:30:46;;;;;;;18.27;14.90;;;10.20;65.30;;;;;;4983161;28;20802;-69
2021/04/10 05:33:13;;;;;;;20.65;13.90;;;10.30;66.60;;;;;;4981780;28;20272;-68
2021/04/10 05:35:40;;;;;;;15.73;13.00;;;10.60;64.20;;;;;;4983765;28;20409;-67
2021/04/10 05:38:07;;;;;;;13.75;12.35;;;10.70;63.00;;;;;;4980838;28;20523;-67
2021/04/10 05:40:34;;;;;;;13.40;11.90;;;10.80;61.60;;;;;;4986683;28;20216;-68
2021/04/10 05:43:00;;;;;;;17.85;13.40;;;10.90;62.30;;;;;;4987067;28;20236;-68
2021/04/10 05:45:27;;;;;;;13.30;11.95;;;11.10;61.30;;;;;;4982286;28;20844;-68
2021/04/10 05:47:54;;;;;;;15.88;12.60;;;11.40;61.40;;;;;;4984694;28;20240;-68
2021/04/10 05:50:20;;;;;;;20.00;12.38;;;11.40;60.20;;;;;;4983831;28;20544;-72
2021/04/10 05:52:47;;;;;;;14.82;12.02;;;11.60;59.80;;;;;;4981040;28;20235;-68
2021/04/10 05:55:14;;;;;;;16.92;12.65;;;11.50;59.60;;;;;;4981976;28;20208;-68
2021/04/10 05:57:41;;;;;;;15.20;12.23;;;11.30;59.80;;;;;;4983866;28;20213;-68
2021/04/10 06:00:08;;;;;;;17.85;12.57;;;10.90;60.60;;;;;;4983727;28;20206;-69
2021/04/10 06:02:35;;;;;;;17.67;13.40;;;11.00;62.50;;;;;;4985793;28;20212;-69
2021/04/10 06:05:03;;;;;;;12.90;11.68;;;11.40;60.90;;;;;;4988589;28;20272;-69
2021/04/10 06:07:29;;;;;;;13.80;12.40;;;12.00;58.80;;;;;;4966398;28;20234;-69
2021/04/10 06:09:56;;;;;;;15.13;13.43;;;12.30;57.30;;;;;;4983891;28;20217;-69
2021/04/10 06:12:23;;;;;;;31.63;17.15;;;13.20;56.20;;;;;;4984272;28;20206;-69
2021/04/10 06:14:49;;;;;;;16.80;14.35;;;14.00;54.30;;;;;;4984789;28;20210;-69
2021/04/10 06:17:17;;;;;;;15.10;13.50;;;15.30;51.50;;;;;;4970411;28;20215;-71
2021/04/10 06:19:43;;;;;;;14.90;12.70;;;16.20;48.80;;;;;;4984710;28;20262;-70
2021/04/10 06:22:30;;;;;;;14.37;12.97;;;17.00;46.00;;;;;;4984247;28;20207;-69
2021/04/10 06:24:57;;;;;;;19.97;12.53;;;16.20;46.90;;;;;;4982416;28;20765;-69
2021/04/10 06:27:24;;;;;;;14.90;13.40;;;16.00;46.70;;;;;;4986839;28;20456;-70
2021/04/10 06:29:51;;;;;;;14.07;12.60;;;15.80;47.60;;;;;;5005981;28;20679;-71
2021/04/10 06:32:18;;;;;;;14.40;13.00;;;16.00;47.40;;;;;;4999956;28;20429;-70
2021/04/10 06:34:44;;;;;;;12.67;11.53;;;15.70;47.10;;;;;;5003299;28;20770;-70
2021/04/10 06:37:11;;;;;;;12.88;11.65;;;15.20;49.00;;;;;;5000186;28;20428;-69
2021/04/10 06:39:37;;;;;;;13.07;11.90;;;14.70;50.50;;;;;;4993342;28;20216;-69
2021/04/10 06:42:05;;;;;;;13.15;11.80;;;14.10;51.90;;;;;;4991998;28;20209;-70
2021/04/10 06:44:32;;;;;;;16.98;12.57;;;14.20;53.00;;;;;;4982675;28;20214;-69
2021/04/10 06:47:03;;;;;;;18.65;16.65;;;14.70;52.00;;;;;;4988432;28;20319;-69
2021/04/10 06:49:31;;;;;;;68.80;44.45;;;14.90;51.80;;;;;;4996333;28;20268;-69
2021/04/10 06:51:59;;;;;;;86.57;52.17;;;15.20;50.40;;;;;;4981834;28;20221;-69
2021/04/10 06:54:32;;;;;;;43.93;30.03;;;16.20;49.70;;;;;;4996997;28;20445;-69
2021/04/10 06:57:14;;;;;;;18.50;16.60;;;17.80;45.70;;;;;;4997493;28;20662;-70
2021/04/10 06:59:41;;;;;;;17.20;13.33;;;19.40;41.30;;;;;;4996734;28;20453;-69
2021/04/10 07:02:11;;;;;;;15.50;14.27;;;20.70;38.80;;;;;;4991819;28;20423;-69
2021/04/10 07:04:38;;;;;;;14.47;13.00;;;21.90;37.70;;;;;;5008540;28;20453;-70
2021/04/10 07:07:06;;;;;;;14.57;13.13;;;21.20;37.70;;;;;;4988625;28;20462;-70
2021/04/10 07:09:34;;;;;;;14.87;13.43;;;20.40;39.20;;;;;;5000579;28;20514;-68
2021/04/10 07:12:03;;;;;;;14.43;13.07;;;19.30;42.50;;;;;;4979599;28;20421;-70
2021/04/10 07:14:30;;;;;;;15.67;14.17;;;19.00;41.80;;;;;;4992864;28;20425;-71
2021/04/10 07:16:57;;;;;;;16.07;14.47;;;18.10;43.40;;;;;;5000663;28;20439;-69
2021/04/10 07:19:28;;;;;;;14.73;12.17;;;17.90;44.70;;;;;;5001819;28;20426;-70
2021/04/10 07:22:15;;;;;;;14.00;12.80;;;17.70;44.70;;;;;;4984396;28;20432;-70
2021/04/10 07:24:44;;;;;;;14.57;12.23;;;17.30;45.10;;;;;;4986209;28;20406;-71
2021/04/10 07:27:18;;;;;;;13.53;12.33;;;17.40;46.10;;;;;;4992153;28;20444;-70
2021/04/10 07:29:54;;;;;;;13.37;11.97;;;17.40;45.50;;;;;;4987706;28;20809;-69
2021/04/10 07:32:40;;;;;;;13.57;12.37;;;17.50;44.90;;;;;;4985437;28;20443;-70
2021/04/10 07:35:08;;;;;;;13.30;11.27;;;17.40;45.40;;;;;;5003966;28;20848;-69
2021/04/10 07:37:36;;;;;;;11.70;10.70;;;17.80;44.80;;;;;;4999845;28;20453;-70
2021/04/10 07:40:11;;;;;;;15.60;12.23;;;18.30;44.30;;;;;;5000119;28;20494;-70
2021/04/10 07:42:42;;;;;;;12.70;11.60;;;18.60;42.70;;;;;;4993259;28;20458;-70
2021/04/10 07:45:32;;;;;;;12.17;11.17;;;18.70;42.10;;;;;;4990947;28;20519;-70
2021/04/10 07:48:05;;;;;;;11.50;10.50;;;18.80;42.70;;;;;;4997461;28;20573;-70
2021/04/10 07:50:34;;;;;;;12.33;11.00;;;19.00;41.30;;;;;;4988772;28;20787;-70
2021/04/10 07:53:24;;;;;;;15.03;10.70;;;19.50;41.40;;;;;;4980498;28;20637;-70
2021/04/10 07:55:52;;;;;;;11.30;10.20;;;20.70;39.30;;;;;;4999990;28;20487;-71
2021/04/10 07:58:29;;;;;;;14.50;11.87;;;21.80;37.70;;;;;;4999373;28;20455;-70
2021/04/10 08:00:59;;;;;;;11.73;10.83;;;23.50;33.60;;;;;;4987192;28;20430;-70
2021/04/10 08:03:26;;;;;;;11.83;10.83;;;24.70;31.40;;;;;;4985488;28;20418;-70
2021/04/10 08:05:53;;;;;;;14.63;11.13;;;24.40;33.00;;;;;;4999566;28;20470;-70
2021/04/10 08:08:22;;;;;;;13.13;10.03;;;23.70;32.70;;;;;;4999306;28;20522;-69
2021/04/10 08:11:04;;;;;;;13.53;10.43;;;22.30;34.20;;;;;;5000023;28;20656;-69
2021/04/10 08:13:32;;;;;;;12.73;11.47;;;22.20;35.50;;;;;;4995249;28;20448;-70
2021/04/10 08:16:19;;;;;;;19.20;15.60;;;23.90;34.10;;;;;;4989610;28;20489;-71
2021/04/10 08:18:54;;;;;;;13.60;12.03;;;24.30;31.70;;;;;;4998577;28;20464;-69
2021/04/10 08:21:35;;;;;;;15.03;13.37;;;23.90;32.30;;;;;;4999295;28;20570;-70
2021/04/10 08:24:23;;;;;;;12.13;11.13;;;24.20;33.70;;;;;;4992485;28;20434;-69
2021/04/10 08:26:58;;;;;;;15.53;13.87;;;23.70;32.50;;;;;;4993178;28;20441;-69
2021/04/10 08:29:25;;;;;;;15.23;13.70;;;23.90;30.70;;;;;;4990139;28;20507;-71
2021/04/10 08:31:53;;;;;;;13.20;11.93;;;23.00;32.20;;;;;;4993247;28;20658;-71
2021/04/10 08:34:19;;;;;;;12.83;11.63;;;22.50;34.20;;;;;;4987434;28;20479;-69
2021/04/10 08:36:57;;;;;;;17.83;12.43;;;21.80;34.40;;;;;;4981875;28;20458;-70
2021/04/10 08:39:30;;;;;;;12.20;11.10;;;21.50;35.50;;;;;;4991773;28;20463;-69
2021/04/10 08:41:58;;;;;;;12.60;10.97;;;22.10;36.30;;;;;;4989034;28;20763;-69
2021/04/10 08:44:29;;;;;;;12.33;10.97;;;22.50;34.90;;;;;;4997483;28;20455;-69
2021/04/10 08:46:56;;;;;;;12.70;11.00;;;22.30;34.70;;;;;;4996439;28;20429;-70
2021/04/10 08:49:23;;;;;;;12.10;11.03;;;22.90;34.50;;;;;;4999705;28;20541;-69
2021/04/10 08:52:04;;;;;;;12.23;10.50;;;23.30;33.50;;;;;;4991509;28;20449;-70
2021/04/10 08:54:32;;;;;;;12.03;11.17;;;24.20;32.80;;;;;;4991103;28;20436;-71
2021/04/10 08:57:05;;;;;;;10.40;9.60;;;24.40;31.00;;;;;;4982960;28;20710;-70
2021/04/10 08:59:42;;;;;;;11.50;10.63;;;25.40;30.20;;;;;;4978181;28;20455;-71
2021/04/10 09:02:19;;;;;;;11.53;10.60;;;26.00;29.90;;;;;;5004303;28;20622;-70
2021/04/10 09:04:55;;;;;;;12.03;10.83;;;24.60;30.10;;;;;;5006708;28;20623;-70
2021/04/10 09:07:46;;;;;;;13.90;10.33;;;23.60;33.50;;;;;;5006749;28;20453;-70
2021/04/10 09:10:28;;;;;;;12.40;10.20;;;23.30;32.70;;;;;;5006975;28;20451;-70
2021/04/10 09:13:15;;;;;;;11.80;10.50;;;22.10;34.40;;;;;;5006473;28;20667;-71
2021/04/10 09:15:43;;;;;;;10.93;10.10;;;20.90;36.90;;;;;;5000815;28;20415;-69
2021/04/10 09:18:13;;;;;;;10.53;9.50;;;19.70;38.20;;;;;;4994042;28;20414;-69
2021/04/10 09:20:47;;;;;;;12.50;10.00;;;19.10;41.60;;;;;;4998674;28;20492;-70
2021/04/10 09:23:31;;;;;;;13.33;9.83;;;18.70;40.90;;;;;;4992376;28;20582;-69
2021/04/10 09:26:14;;;;;;;12.53;9.70;;;18.30;43.00;;;;;;5003907;28;20712;-69
2021/04/10 09:28:56;;;;;;;10.83;9.83;;;18.00;43.50;;;;;;4999583;28;21008;-69
2021/04/10 09:31:49;;;;;;;11.33;10.27;;;17.80;43.20;;;;;;5009535;28;20480;-69
2021/04/10 09:34:48;;;;;;;10.97;9.77;;;17.70;44.10;;;;;;4995320;28;20458;-69
2021/04/10 09:37:21;;;;;;;14.13;9.63;;;17.50;44.60;;;;;;4980483;28;20664;-68
2021/04/10 09:39:53;;;;;;;10.17;9.27;;;17.30;44.70;;;;;;4991411;28;20484;-69
2021/04/10 09:42:44;;;;;;;11.20;9.30;;;17.10;45.40;;;;;;4997356;28;20512;-69
2021/04/10 09:45:19;;;;;;;9.73;8.93;;;17.00;45.10;;;;;;4981614;28;20475;-69
2021/04/10 09:48:01;;;;;;;9.57;8.73;;;17.00;45.50;;;;;;4977824;28;20450;-69
2021/04/10 09:50:37;;;;;;;10.30;9.23;;;16.80;46.20;;;;;;4997507;28;20668;-68
2021/04/10 09:53:05;;;;;;;12.50;8.90;;;16.80;47.00;;;;;;4997520;28;20473;-68
2021/04/10 09:55:37;;;;;;;11.93;9.43;;;16.60;47.20;;;;;;4979854;28;20693;-70
2021/04/10 09:58:08;;;;;;;12.27;10.97;;;16.70;46.60;;;;;;4997210;28;20756;-69
2021/04/10 10:00:46;;;;;;;10.50;8.80;;;16.80;46.60;;;;;;4992390;28;20752;-69
2021/04/10 10:03:15;;;;;;;10.63;9.60;;;17.00;46.40;;;;;;4983170;28;20460;-69
2021/04/10 10:06:01;;;;;;;9.60;8.63;;;17.30;46.00;;;;;;4982932;28;20446;-70
2021/04/10 10:08:33;;;;;;;10.50;9.50;;;17.10;46.20;;;;;;5010849;28;20487;-69
2021/04/10 10:11:06;;;;;;;9.63;8.93;;;17.20;45.40;;;;;;4997588;28;20628;-70
2021/04/10 10:13:35;;;;;;;13.00;10.00;;;17.20;47.20;;;;;;4976095;28;20461;-70
2021/04/10 10:16:02;;;;;;;10.10;9.10;;;16.90;47.00;;;;;;4994537;28;20420;-71
2021/04/10 10:18:34;;;;;;;10.23;8.53;;;16.70;47.60;;;;;;4996893;28;20451;-68
2021/04/10 10:21:08;;;;;;;11.17;9.30;;;16.60;47.50;;;;;;5002752;28;20458;-71
2021/04/10 10:23:56;;;;;;;10.57;9.00;;;16.50;47.90;;;;;;4997285;28;20439;-69
2021/04/10 10:26:28;;;;;;;14.07;9.10;;;16.50;48.10;;;;;;4997583;28;20420;-70
2021/04/10 10:29:04;;;;;;;10.80;9.77;;;16.40;47.30;;;;;;5002400;28;20487;-69
2021/04/10 10:31:40;;;;;;;13.77;9.50;;;16.30;48.90;;;;;;4995624;28;20414;-70
2021/04/10 10:34:09;;;;;;;11.00;8.60;;;16.40;48.20;;;;;;4979721;28;20413;-69
2021/04/10 10:36:38;;;;;;;8.93;8.10;;;16.60;47.60;;;;;;5007995;28;20446;-70
2021/04/10 10:39:07;;;;;;;9.40;8.60;;;16.70;47.60;;;;;;4993240;28;20449;-71
2021/04/10 10:41:45;;;;;;;13.13;8.90;;;16.60;48.10;;;;;;5000390;28;20648;-69
2021/04/10 10:44:12;;;;;;;10.13;9.30;;;16.50;47.80;;;;;;5000747;28;20446;-70
2021/04/10 10:46:39;;;;;;;12.97;10.47;;;16.50;48.10;;;;;;4983346;28;20454;-70
2021/04/10 10:49:13;;;;;;;14.10;12.67;;;16.60;47.00;;;;;;5001577;28;20772;-70
2021/04/10 10:51:42;;;;;;;9.43;8.43;;;16.70;47.10;;;;;;4992221;28;20431;-70
2021/04/10 10:54:09;;;;;;;10.70;9.73;;;16.80;46.50;;;;;;5001237;28;20439;-70
2021/04/10 10:56:36;;;;;;;9.90;8.90;;;16.70;47.20;;;;;;5008817;28;20448;-70
2021/04/10 10:59:07;;;;;;;10.43;9.30;;;16.70;47.40;;;;;;5003936;28;20513;-70
2021/04/10 11:01:40;;;;;;;11.67;10.57;;;16.80;47.00;;;;;;5005407;28;20420;-70
2021/04/10 11:04:13;;;;;;;10.67;9.43;;;16.90;47.00;;;;;;5002943;28;20509;-71
2021/04/10 11:06:39;;;;;;;10.70;9.70;;;17.20;47.00;;;;;;5002079;28;20470;-69
2021/04/10 11:09:11;;;;;;;10.30;9.30;;;17.40;45.90;;;;;;5007061;28;20467;-68
2021/04/10 11:11:43;;;;;;;13.60;9.93;;;17.50;45.80;;;;;;4998876;28;20827;-69
2021/04/10 11:14:10;;;;;;;11.17;9.97;;;17.80;46.30;;;;;;4982773;28;20488;-70
2021/04/10 11:16:49;;;;;;;10.13;9.23;;;18.00;44.90;;;;;;5006627;28;20755;-70
2021/04/10 11:19:26;;;;;;;10.70;9.70;;;18.20;44.70;;;;;;4998889;28;20422;-70
2021/04/10 11:21:53;;;;;;;11.00;9.43;;;18.40;44.40;;;;;;4997333;28;20796;-70
2021/04/10 11:24:20;;;;;;;10.93;9.93;;;18.40;44.20;;;;;;4984829;28;20447;-69
2021/04/10 11:26:54;;;;;;;10.83;9.87;;;18.60;43.50;;;;;;4985084;28;20447;-72
2021/04/10 11:29:28;;;;;;;12.60;10.70;;;19.10;43.50;;;;;;4979891;28;20442;-71
2021/04/10 11:32:40;;;;;;;11.40;10.30;;;19.20;43.10;;;;;;4988248;28;20523;-70
2021/04/10 11:35:19;;;;;;;13.67;12.30;;;19.10;43.50;;;;;;4956370;28;20750;-69
2021/04/10 11:37:50;;;;;;;15.53;12.47;;;18.40;45.90;;;;;;4983003;28;20610;-70
2021/04/10 11:40:19;;;;;;;16.93;12.03;;;17.90;48.50;;;;;;4995980;28;20759;-71
2021/04/10 11:42:55;;;;;;;17.80;13.87;;;18.20;47.00;;;;;;4993419;28;20419;-70
2021/04/10 11:45:30;;;;;;;13.30;12.00;;;18.20;46.50;;;;;;4991262;28;20451;-70
2021/04/10 11:48:14;;;;;;;12.83;11.63;;;18.60;46.10;;;;;;4988286;28;20412;-69
2021/04/10 11:50:45;;;;;;;15.50;13.30;;;19.00;44.70;;;;;;4986510;28;20542;-70
2021/04/10 11:53:36;;;;;;;13.80;12.27;;;19.30;43.40;;;;;;4984455;28;20487;-69
2021/04/10 11:56:27;;;;;;;13.83;12.57;;;19.40;42.90;;;;;;4972526;28;20451;-70
2021/04/10 11:59:29;;;;;;;22.20;14.50;;;19.70;42.80;;;;;;4999747;28;20789;-70
2021/04/10 12:01:58;;;;;;;23.23;14.17;;;19.80;42.30;;;;;;4999593;28;20413;-69
2021/04/10 12:04:26;;;;;;;18.27;14.70;;;19.40;44.10;;;;;;4999206;28;20777;-70
2021/04/10 12:07:13;;;;;;;18.33;14.37;;;19.40;43.80;;;;;;4999800;28;20482;-70
2021/04/10 12:09:41;;;;;;;15.80;14.23;;;19.20;43.70;;;;;;4998552;28;20819;-69
2021/04/10 12:12:12;;;;;;;16.03;14.73;;;18.90;45.30;;;;;;4993269;28;20440;-69
2021/04/10 12:14:39;;;;;;;17.33;15.50;;;18.90;44.80;;;;;;4986470;28;20458;-68
2021/04/10 12:17:07;;;;;;;15.97;14.43;;;18.40;45.80;;;;;;4986207;28;20418;-70
2021/04/10 12:19:35;;;;;;;19.60;16.37;;;18.00;45.80;;;;;;4981834;28;20427;-70
2021/04/10 12:22:02;;;;;;;17.77;16.03;;;17.60;47.00;;;;;;4988591;28;20458;-69
2021/04/10 12:24:29;;;;;;;20.67;18.43;;;17.50;46.30;;;;;;4992195;28;20420;-70
2021/04/10 12:26:58;;;;;;;15.37;13.97;;;17.30;47.10;;;;;;4989891;28;20446;-69
2021/04/10 12:29:25;;;;;;;16.97;14.93;;;16.90;45.90;;;;;;4981884;28;20462;-68
2021/04/10 12:31:52;;;;;;;16.00;14.50;;;16.60;46.70;;;;;;4986111;28;20448;-69
2021/04/10 12:34:18;;;;;;;15.67;14.10;;;16.50;46.50;;;;;;4978380;28;20647;-69
2021/04/10 12:36:45;;;;;;;14.97;13.63;;;16.50;46.70;;;;;;4980722;28;20778;-70
2021/04/10 12:39:12;;;;;;;15.60;14.03;;;16.30;45.70;;;;;;4969504;28;20423;-69
2021/04/10 12:41:38;;;;;;;16.07;13.60;;;16.30;45.90;;;;;;4986021;28;20453;-69
2021/04/10 12:44:05;;;;;;;16.70;15.10;;;16.00;47.10;;;;;;4981112;28;20442;-70
2021/04/10 12:46:32;;;;;;;14.43;13.20;;;15.70;46.80;;;;;;4982161;28;21033;-70
2021/04/10 12:48:58;;;;;;;14.17;12.70;;;15.40;47.40;;;;;;4982152;28;20537;-69
2021/04/10 12:51:25;;;;;;;14.77;13.37;;;15.40;48.00;;;;;;4983609;28;20511;-69